createdAt,value
2022-12-15T00:02:19.042Z,91.24
2022-12-15T00:05:04.455Z,91.37
2022-12-15T00:07:49.788Z,91.46
2022-12-15T00:10:35.382Z,91.01
2022-12-15T00:13:20.970Z,89.78
2022-12-15T00:16:06.809Z,89.93
2022-12-15T00:18:52.769Z,90.68
2022-12-15T00:21:38.152Z,90.66
2022-12-15T00:24:24.049Z,91.73
2022-12-15T00:27:09.428Z,91.38
2022-12-15T00:29:54.779Z,91.00
2022-12-15T00:32:41.380Z,91.23
2022-12-15T00:35:27.503Z,92.39
2022-12-15T00:38:12.737Z,92.83
2022-12-15T00:40:39.453Z,92.11
2022-12-15T00:43:06.598Z,91.59
2022-12-15T00:45:51.945Z,91.06
2022-12-15T00:48:18.757Z,91.28
2022-12-15T00:50:54.554Z,91.00
2022-12-15T00:53:41.100Z,91.66
2022-12-15T00:56:26.914Z,92.08
2022-12-15T00:59:12.839Z,91.52
2022-12-15T01:01:58.359Z,92.11
2022-12-15T01:04:43.598Z,92.72
2022-12-15T01:07:29.034Z,93.01
2022-12-15T01:10:14.351Z,92.70
2022-12-15T01:12:59.734Z,92.66
2022-12-15T01:15:45.406Z,92.31
2022-12-15T01:18:30.727Z,92.46
2022-12-15T01:21:05.186Z,92.23
2022-12-15T01:23:32.836Z,91.90
2022-12-15T01:26:00.092Z,91.31
2022-12-15T01:28:27.134Z,91.67
2022-12-15T01:30:54.079Z,91.86
2022-12-15T01:33:21.554Z,91.77
2022-12-15T01:35:58.965Z,91.35
2022-12-15T01:38:26.856Z,91.08
2022-12-15T01:40:56.505Z,91.61
2022-12-15T01:43:27.363Z,92.23
2022-12-15T01:46:09.409Z,92.51
2022-12-15T01:48:44.184Z,92.76
2022-12-15T01:51:34.895Z,92.20
2022-12-15T01:54:20.366Z,92.21
2022-12-15T01:56:50.701Z,91.96
2022-12-15T01:59:20.989Z,91.26
2022-12-15T02:01:50.152Z,91.25
2022-12-15T02:04:20.218Z,91.11
2022-12-15T02:06:46.896Z,91.82
2022-12-15T02:09:14.253Z,91.91
2022-12-15T02:12:07.398Z,91.60
2022-12-15T02:15:03.438Z,90.87
2022-12-15T02:17:48.908Z,91.18
2022-12-15T02:20:49.598Z,91.79
2022-12-15T02:24:02.449Z,92.01
2022-12-15T02:27:06.471Z,92.51
2022-12-15T02:30:26.556Z,92.63
2022-12-15T02:33:08.843Z,92.09
2022-12-15T02:35:44.811Z,91.82
2022-12-15T02:38:12.378Z,92.08
2022-12-15T02:40:39.712Z,92.15
2022-12-15T02:43:07.706Z,92.22
2022-12-15T02:46:11.606Z,92.88
2022-12-15T02:49:15.007Z,93.26
2022-12-15T02:52:20.713Z,92.67
2022-12-15T02:55:18.232Z,92.92
2022-12-15T02:58:00.258Z,92.95
2022-12-15T03:00:28.468Z,92.16
2022-12-15T03:02:55.787Z,91.90
2022-12-15T03:05:24.807Z,91.92
2022-12-15T03:07:54.573Z,92.19
2022-12-15T03:10:24.012Z,91.47
2022-12-15T03:12:51.426Z,91.56
2022-12-15T03:15:18.853Z,91.42
2022-12-15T03:17:45.708Z,90.73
2022-12-15T03:20:13.123Z,91.44
2022-12-15T03:22:39.897Z,91.79
2022-12-15T03:25:07.081Z,91.45
2022-12-15T03:27:33.763Z,91.53
2022-12-15T03:30:00.633Z,91.67
2022-12-15T03:32:28.563Z,91.64
2022-12-15T03:34:55.337Z,90.71
2022-12-15T03:37:22.081Z,90.98
2022-12-15T03:39:48.898Z,90.41
2022-12-15T03:42:35.645Z,91.29
2022-12-15T03:45:02.527Z,91.66
2022-12-15T03:47:29.450Z,91.39
2022-12-15T03:49:56.122Z,91.09
2022-12-15T03:52:22.906Z,91.15
2022-12-15T03:54:49.836Z,91.51
2022-12-15T03:57:16.568Z,91.11
2022-12-15T03:59:43.687Z,91.79
2022-12-15T04:02:12.408Z,92.45
2022-12-15T04:04:39.270Z,92.30
2022-12-15T04:07:05.986Z,91.56
2022-12-15T04:09:32.680Z,91.45
2022-12-15T04:11:59.464Z,90.65
2022-12-15T04:14:26.281Z,90.64
2022-12-15T04:16:53.371Z,90.00
2022-12-15T04:19:38.706Z,89.90
2022-12-15T04:22:05.801Z,90.36
2022-12-15T04:24:51.167Z,90.16
2022-12-15T04:27:36.418Z,90.77
2022-12-15T04:30:22.880Z,91.33
2022-12-15T04:33:09.140Z,91.67
2022-12-15T04:35:54.353Z,92.51
2022-12-15T04:38:43.929Z,90.98
2022-12-15T04:41:36.275Z,90.98
2022-12-15T04:44:21.623Z,90.84
2022-12-15T04:47:06.815Z,90.22
2022-12-15T04:49:52.332Z,89.92
2022-12-15T04:52:37.376Z,90.66
2022-12-15T04:55:23.329Z,90.15
2022-12-15T04:58:08.853Z,89.97
2022-12-15T05:00:55.006Z,92.39
2022-12-15T05:03:40.504Z,91.04
2022-12-15T05:06:26.825Z,90.70
2022-12-15T05:09:12.228Z,90.38
2022-12-15T05:11:57.669Z,90.32
2022-12-15T05:14:42.896Z,90.16
2022-12-15T05:17:28.107Z,90.47
2022-12-15T05:20:13.702Z,90.48
2022-12-15T05:22:59.088Z,90.35
2022-12-15T05:25:44.241Z,90.69
2022-12-15T05:28:29.629Z,89.96
2022-12-15T05:31:15.119Z,90.96
2022-12-15T05:33:41.922Z,91.21
2022-12-15T05:36:09.530Z,90.63
2022-12-15T05:38:36.243Z,90.37
2022-12-15T05:41:03.034Z,90.57
2022-12-15T05:43:30.141Z,91.32
2022-12-15T05:45:57.236Z,90.96
2022-12-15T05:48:24.459Z,91.32
2022-12-15T05:50:51.184Z,91.63
2022-12-15T05:53:17.860Z,90.42
2022-12-15T05:55:44.565Z,88.95
2022-12-15T05:58:11.347Z,88.41
2022-12-15T06:00:38.325Z,88.84
2022-12-15T06:03:05.430Z,89.48
2022-12-15T06:05:32.211Z,89.39
2022-12-15T06:08:00.458Z,89.38
2022-12-15T06:10:27.476Z,89.08
2022-12-15T06:12:54.711Z,88.03
2022-12-15T06:15:21.481Z,87.92
2022-12-15T06:17:49.730Z,88.36
2022-12-15T06:20:16.924Z,88.45
2022-12-15T06:22:49.607Z,86.93
2022-12-15T06:25:17.908Z,87.49
2022-12-15T06:27:44.598Z,87.99
2022-12-15T06:30:12.100Z,88.30
2022-12-15T06:32:38.859Z,88.09
2022-12-15T06:35:06.198Z,87.96
2022-12-15T06:37:32.933Z,88.39
2022-12-15T06:39:59.715Z,87.70
2022-12-15T06:42:26.461Z,86.96
2022-12-15T06:44:53.274Z,89.01
2022-12-15T06:47:20.285Z,89.22
2022-12-15T06:49:46.965Z,88.75
2022-12-15T06:52:13.924Z,88.05
2022-12-15T06:54:40.661Z,89.00
2022-12-15T06:57:07.405Z,89.05
2022-12-15T06:59:34.191Z,89.15
2022-12-15T07:02:01.406Z,89.47
2022-12-15T07:04:28.449Z,89.24
2022-12-15T07:06:58.087Z,89.80
2022-12-15T07:09:26.354Z,89.78
2022-12-15T07:11:53.327Z,89.30
2022-12-15T07:14:20.095Z,88.95
2022-12-15T07:16:47.018Z,88.38
2022-12-15T07:19:14.061Z,89.77
2022-12-15T07:21:41.434Z,88.90
2022-12-15T07:24:10.752Z,89.78
2022-12-15T07:26:37.537Z,89.63
2022-12-15T07:29:04.397Z,89.13
2022-12-15T07:31:32.175Z,90.54
2022-12-15T07:33:59.341Z,90.32
2022-12-15T07:36:27.817Z,89.93
2022-12-15T07:39:01.133Z,90.65
2022-12-15T07:41:28.961Z,91.15
2022-12-15T07:43:56.822Z,90.88
2022-12-15T07:46:24.436Z,91.06
2022-12-15T07:48:51.319Z,91.32
2022-12-15T07:51:20.270Z,91.54
2022-12-15T07:53:51.229Z,91.98
2022-12-15T07:56:19.903Z,92.48
2022-12-15T07:58:46.950Z,92.46
2022-12-15T08:01:14.199Z,91.93
2022-12-15T08:03:41.700Z,93.33
2022-12-15T08:06:11.407Z,93.97
2022-12-15T08:08:38.871Z,94.31
2022-12-15T08:11:06.783Z,94.76
2022-12-15T08:16:21.959Z,95.31
2022-12-15T08:18:49.155Z,95.67
2022-12-15T08:21:16.069Z,95.69
2022-12-15T08:23:43.139Z,96.38
2022-12-15T08:26:15.732Z,96.89
2022-12-15T08:28:43.484Z,98.09
2022-12-15T08:31:13.147Z,98.41
2022-12-15T08:33:40.206Z,97.92
2022-12-15T08:36:09.193Z,97.38
2022-12-15T08:38:38.773Z,96.71
2022-12-15T08:41:30.725Z,95.76
2022-12-15T08:43:58.646Z,95.24
2022-12-15T08:46:28.275Z,93.92
2022-12-15T08:48:55.125Z,93.67
2022-12-15T08:51:23.129Z,94.30
2022-12-15T08:53:50.431Z,93.33
2022-12-15T08:56:20.226Z,92.86
2022-12-15T08:58:49.063Z,92.39
2022-12-15T09:01:22.907Z,92.24
2022-12-15T09:03:52.986Z,92.72
2022-12-15T09:06:23.255Z,94.23
2022-12-15T09:08:50.720Z,95.05
2022-12-15T09:11:17.955Z,95.01
2022-12-15T09:13:45.300Z,95.10
2022-12-15T09:16:15.362Z,96.42
2022-12-15T09:18:44.164Z,96.52
2022-12-15T09:21:11.803Z,96.44
2022-12-15T09:23:39.409Z,96.51
2022-12-15T09:26:11.653Z,96.56
2022-12-15T09:28:38.633Z,97.04
2022-12-15T09:31:26.386Z,97.03
2022-12-15T09:33:54.567Z,97.58
2022-12-15T09:36:24.540Z,96.32
2022-12-15T09:38:51.755Z,95.70
2022-12-15T09:41:25.595Z,97.10
2022-12-15T09:44:12.523Z,96.68
2022-12-15T09:47:19.188Z,96.46
2022-12-15T09:49:59.419Z,96.36
2022-12-15T09:52:29.569Z,95.98
2022-12-15T09:54:57.899Z,97.07
2022-12-15T09:57:38.218Z,97.28
2022-12-15T10:00:16.414Z,97.21
2022-12-15T10:03:21.465Z,97.55
2022-12-15T10:06:17.764Z,97.28
2022-12-15T10:09:10.292Z,98.12
2022-12-15T10:11:57.856Z,98.26
2022-12-15T10:14:49.875Z,98.28
2022-12-15T10:17:28.662Z,98.19
2022-12-15T10:20:08.496Z,97.63
2022-12-15T10:22:37.475Z,97.33
2022-12-15T10:25:16.692Z,97.65
2022-12-15T10:28:13.514Z,97.95
2022-12-15T10:30:54.019Z,97.19
2022-12-15T10:33:24.489Z,97.75
2022-12-15T10:35:53.709Z,97.63
2022-12-15T10:41:35.339Z,98.30
2022-12-15T10:44:03.039Z,97.68
2022-12-15T10:46:31.116Z,97.05
2022-12-15T10:49:19.631Z,98.52
2022-12-15T10:51:57.641Z,99.06
2022-12-15T10:54:27.522Z,99.38
2022-12-15T10:56:59.552Z,99.47
2022-12-15T10:59:37.702Z,99.12
2022-12-15T11:02:30.044Z,98.42
2022-12-15T11:05:05.506Z,98.47
2022-12-15T11:07:35.497Z,98.04
2022-12-15T11:10:10.292Z,98.58
2022-12-15T11:12:52.280Z,99.22
2022-12-15T11:15:39.987Z,98.93
2022-12-15T11:18:38.660Z,97.99
2022-12-15T11:21:13.373Z,98.35
2022-12-15T11:24:01.368Z,98.53
2022-12-15T11:27:29.686Z,98.51
2022-12-15T11:30:14.555Z,98.23
2022-12-15T11:32:49.400Z,97.64
2022-12-15T11:35:20.950Z,97.80
2022-12-15T11:37:52.608Z,98.79
2022-12-15T11:40:43.109Z,98.97
2022-12-15T11:43:28.111Z,99.12
2022-12-15T11:46:16.300Z,99.08
2022-12-15T11:49:04.365Z,98.58
2022-12-15T11:51:49.321Z,98.18
2022-12-15T11:54:28.524Z,99.00
2022-12-15T11:57:42.317Z,99.21
2022-12-15T12:00:13.265Z,99.65
2022-12-15T12:03:38.894Z,99.52
2022-12-15T12:06:08.229Z,99.69
2022-12-15T12:08:56.822Z,99.71
2022-12-15T12:11:29.437Z,99.90
2022-12-15T12:14:24.446Z,99.83
2022-12-15T12:17:28.175Z,99.38
2022-12-15T12:19:59.342Z,98.86
2022-12-15T12:22:33.010Z,99.16
2022-12-15T12:25:21.504Z,98.29
2022-12-15T12:28:07.200Z,98.33
2022-12-15T12:30:41.114Z,98.80
2022-12-15T12:33:22.510Z,98.79
2022-12-15T12:35:53.486Z,98.81
2022-12-15T12:38:25.500Z,98.60
2022-12-15T12:41:34.399Z,98.89
2022-12-15T12:44:07.838Z,98.78
2022-12-15T12:46:46.599Z,98.52
2022-12-15T12:49:44.158Z,99.53
2022-12-15T12:52:26.395Z,99.35
2022-12-15T12:55:16.689Z,99.50
2022-12-15T12:57:44.345Z,99.41
2022-12-15T13:00:20.351Z,99.36
2022-12-15T13:02:54.536Z,99.54
2022-12-15T13:05:34.972Z,98.95
2022-12-15T13:08:28.289Z,99.43
2022-12-15T13:10:58.457Z,99.06
2022-12-15T13:13:53.305Z,98.93
2022-12-15T13:16:25.563Z,99.03
2022-12-15T13:19:03.183Z,99.03
2022-12-15T13:22:02.280Z,98.59
2022-12-15T13:24:34.137Z,98.34
2022-12-15T13:27:15.593Z,98.64
2022-12-15T13:30:17.718Z,97.45
2022-12-15T13:32:47.623Z,97.56
2022-12-15T13:35:34.840Z,97.16
2022-12-15T13:38:07.658Z,97.38
2022-12-15T13:40:54.523Z,96.79
2022-12-15T13:43:47.612Z,96.86
2022-12-15T13:46:20.820Z,96.63
2022-12-15T13:48:52.596Z,96.99
2022-12-15T13:51:24.681Z,97.20
2022-12-15T13:53:56.775Z,97.28
2022-12-15T13:56:50.676Z,97.93
2022-12-15T13:59:49.429Z,97.58
2022-12-15T14:02:30.566Z,97.24
2022-12-15T14:05:27.934Z,97.52
2022-12-15T14:08:00.612Z,97.71
2022-12-15T14:10:49.111Z,98.10
2022-12-15T14:13:26.613Z,98.56
2022-12-15T14:16:19.408Z,98.79
2022-12-15T14:19:32.103Z,98.56
2022-12-15T14:22:03.771Z,98.43
2022-12-15T14:24:39.463Z,97.93
2022-12-15T14:27:07.252Z,97.32
2022-12-15T14:29:34.426Z,96.94
2022-12-15T14:32:01.411Z,96.73
2022-12-15T14:34:33.937Z,96.37
2022-12-15T14:37:02.864Z,95.93
2022-12-15T14:39:37.698Z,95.33
2022-12-15T14:42:04.585Z,94.97
2022-12-15T14:47:29.177Z,94.64
2022-12-15T14:49:58.267Z,94.31
2022-12-15T14:52:36.945Z,94.24
2022-12-15T14:55:32.725Z,94.19
2022-12-15T14:58:00.079Z,94.13
2022-12-15T15:00:36.506Z,94.20
2022-12-15T15:03:06.719Z,97.38
2022-12-15T15:03:14.461Z,95.10
2022-12-15T15:05:58.112Z,94.44
2022-12-15T15:08:33.742Z,94.77
2022-12-15T15:11:03.029Z,94.67
2022-12-15T15:13:40.264Z,94.79
2022-12-15T15:16:13.412Z,94.61
2022-12-15T15:18:41.072Z,95.16
2022-12-15T15:21:08.039Z,95.61
2022-12-15T15:23:39.980Z,95.70
2022-12-15T15:26:10.751Z,95.35
2022-12-15T15:28:37.434Z,95.70
2022-12-15T15:31:27.700Z,96.07
2022-12-15T15:33:58.004Z,96.26
2022-12-15T15:36:29.543Z,95.96
2022-12-15T15:38:56.335Z,96.47
2022-12-15T15:41:29.697Z,96.78
2022-12-15T15:43:59.571Z,96.26
2022-12-15T15:46:29.553Z,95.93
2022-12-15T15:48:58.258Z,96.04
2022-12-15T15:51:26.149Z,95.67
2022-12-15T15:53:54.217Z,95.51
2022-12-15T15:56:21.520Z,95.97
2022-12-15T15:58:48.217Z,96.68
2022-12-15T16:01:15.037Z,96.10
2022-12-15T16:03:42.482Z,95.82
2022-12-15T16:06:19.795Z,95.92
2022-12-15T16:08:52.601Z,95.68
2022-12-15T16:11:20.313Z,96.24
2022-12-15T16:13:47.104Z,96.49
2022-12-15T16:16:19.813Z,96.56
2022-12-15T16:18:46.611Z,96.53
2022-12-15T16:21:15.498Z,96.82
2022-12-15T16:23:44.948Z,96.56
2022-12-15T16:26:17.287Z,96.37
2022-12-15T16:28:44.287Z,96.07
2022-12-15T16:31:15.850Z,95.82
2022-12-15T16:33:42.796Z,95.89
2022-12-15T16:36:14.271Z,96.60
2022-12-15T16:38:41.726Z,97.28
2022-12-15T16:41:13.528Z,96.51
2022-12-15T16:43:44.480Z,95.94
2022-12-15T16:46:15.773Z,96.00
2022-12-15T16:48:42.902Z,96.03
2022-12-15T16:51:13.380Z,95.85
2022-12-15T16:53:42.215Z,94.97
2022-12-15T16:56:13.959Z,94.93
2022-12-15T16:58:40.966Z,94.87
2022-12-15T17:01:10.402Z,94.28
2022-12-15T17:03:37.378Z,93.67
2022-12-15T17:06:11.178Z,94.20
2022-12-15T17:08:54.915Z,94.69
2022-12-15T17:11:24.351Z,97.22
2022-12-15T17:13:53.946Z,97.23
2022-12-15T17:16:22.650Z,96.50
2022-12-15T17:18:50.203Z,96.27
2022-12-15T17:21:20.320Z,96.35
2022-12-15T17:23:52.605Z,96.06
2022-12-15T17:26:29.515Z,96.46
2022-12-15T17:28:59.173Z,96.68
2022-12-15T17:31:30.190Z,96.37
2022-12-15T17:34:02.809Z,96.58
2022-12-15T17:36:29.562Z,97.33
2022-12-15T17:39:01.687Z,96.90
2022-12-15T17:41:57.993Z,96.66
2022-12-15T17:44:32.907Z,96.29
2022-12-15T17:47:02.242Z,97.35
2022-12-15T17:49:35.170Z,97.51
2022-12-15T17:52:04.820Z,96.98
2022-12-15T17:54:31.671Z,96.69
2022-12-15T17:56:58.971Z,95.71
2022-12-15T17:59:25.713Z,95.47
2022-12-15T18:01:52.954Z,95.43
2022-12-15T18:04:19.783Z,95.87
2022-12-15T18:06:46.607Z,95.45
2022-12-15T18:09:15.775Z,95.70
2022-12-15T18:11:45.384Z,96.63
2022-12-15T18:14:19.577Z,96.72
2022-12-15T18:16:46.728Z,96.64
2022-12-15T18:19:13.822Z,96.18
2022-12-15T18:21:40.692Z,96.16
2022-12-15T18:24:15.709Z,96.18
2022-12-15T18:26:42.593Z,95.79
2022-12-15T18:29:15.007Z,95.14
2022-12-15T18:31:42.364Z,94.96
2022-12-15T18:34:13.895Z,95.14
2022-12-15T18:36:41.240Z,94.83
2022-12-15T18:39:19.264Z,94.33
2022-12-15T18:41:46.905Z,94.49
2022-12-15T18:44:27.897Z,94.83
2022-12-15T18:46:55.459Z,95.43
2022-12-15T18:49:23.096Z,94.37
2022-12-15T18:51:49.991Z,93.96
2022-12-15T18:54:19.836Z,93.36
2022-12-15T18:56:47.080Z,93.55
2022-12-15T18:59:16.056Z,93.26
2022-12-15T19:01:47.925Z,93.95
2022-12-15T19:04:15.553Z,93.19
2022-12-15T19:06:42.608Z,93.82
2022-12-15T19:09:16.216Z,94.61
2022-12-15T19:12:04.225Z,94.55
2022-12-15T19:14:43.497Z,93.65
2022-12-15T19:17:30.524Z,93.27
2022-12-15T19:20:20.396Z,93.26
2022-12-15T19:22:48.408Z,92.72
2022-12-15T19:25:26.240Z,92.32
2022-12-15T19:27:59.997Z,92.49
2022-12-15T19:30:29.103Z,93.33
2022-12-15T19:32:56.352Z,92.60
2022-12-15T19:35:23.193Z,92.83
2022-12-15T19:37:50.336Z,92.84
2022-12-15T19:40:20.702Z,92.57
2022-12-15T19:42:48.185Z,92.59
2022-12-15T19:45:23.275Z,92.60
2022-12-15T19:47:50.361Z,92.21
2022-12-15T19:50:22.788Z,92.23
2022-12-15T19:52:52.444Z,91.83
2022-12-15T19:55:24.296Z,92.26
2022-12-15T19:57:51.157Z,91.62
2022-12-15T20:00:22.099Z,91.67
2022-12-15T20:02:51.831Z,91.97
2022-12-15T20:05:19.736Z,92.84
2022-12-15T20:07:48.237Z,92.16
2022-12-15T20:10:24.655Z,92.06
2022-12-15T20:12:56.705Z,91.12
2022-12-15T20:15:26.018Z,91.36
2022-12-15T20:17:57.408Z,92.03
2022-12-15T20:20:27.225Z,92.07
2022-12-15T20:22:56.716Z,92.05
2022-12-15T20:25:26.995Z,91.70
2022-12-15T20:27:54.466Z,91.96
2022-12-15T20:30:25.449Z,92.66
2022-12-15T20:32:53.063Z,92.60
2022-12-15T20:35:21.781Z,91.53
2022-12-15T20:37:49.338Z,91.77
2022-12-15T20:40:24.772Z,92.15
2022-12-15T20:42:52.851Z,92.91
2022-12-15T20:45:22.713Z,93.31
2022-12-15T20:47:51.154Z,93.01
2022-12-15T20:50:36.598Z,93.53
2022-12-15T20:53:04.657Z,93.20
2022-12-15T20:55:31.697Z,93.82
2022-12-15T20:57:58.420Z,93.87
2022-12-15T21:00:25.150Z,93.50
2022-12-15T21:02:54.898Z,92.58
2022-12-15T21:05:24.810Z,92.09
2022-12-15T21:07:52.587Z,92.17
2022-12-15T21:10:21.358Z,92.69
2022-12-15T21:12:49.634Z,93.05
2022-12-15T21:15:22.285Z,92.01
2022-12-15T21:17:57.350Z,91.59
2022-12-15T21:20:30.769Z,91.68
2022-12-15T21:22:58.026Z,91.40
2022-12-15T21:25:27.974Z,91.61
2022-12-15T21:27:54.733Z,91.20
2022-12-15T21:30:23.289Z,91.42
2022-12-15T21:32:51.027Z,91.78
2022-12-15T21:35:19.343Z,92.38
2022-12-15T21:37:47.937Z,91.30
2022-12-15T21:40:22.625Z,90.43
2022-12-15T21:42:50.403Z,89.00
2022-12-15T21:45:19.463Z,89.96
2022-12-15T21:48:05.866Z,89.73
2022-12-15T21:50:33.478Z,89.92
2022-12-15T21:53:01.155Z,91.54
2022-12-15T21:55:29.308Z,91.08
2022-12-15T21:57:57.533Z,92.51
2022-12-15T22:00:25.595Z,92.11
2022-12-15T22:02:53.472Z,91.52
2022-12-15T22:05:21.953Z,91.55
2022-12-15T22:07:50.135Z,91.92
2022-12-15T22:10:18.630Z,92.75
2022-12-15T22:12:53.404Z,93.22
2022-12-15T22:15:26.409Z,92.76
2022-12-15T22:17:53.302Z,91.50
2022-12-15T22:20:23.147Z,91.49
2022-12-15T22:22:50.688Z,91.34
2022-12-15T22:25:22.549Z,91.69
2022-12-15T22:27:49.712Z,91.28
2022-12-15T22:30:21.706Z,91.60
2022-12-15T22:32:48.577Z,91.66
2022-12-15T22:35:20.635Z,91.58
2022-12-15T22:37:49.800Z,90.81
2022-12-15T22:40:18.171Z,91.34
2022-12-15T22:42:47.412Z,91.19
2022-12-15T22:45:16.974Z,91.38
2022-12-15T22:47:45.238Z,90.36
2022-12-15T22:50:23.849Z,90.06
2022-12-15T22:52:52.021Z,90.48
2022-12-15T22:55:20.881Z,91.07
2022-12-15T22:57:54.408Z,91.46
2022-12-15T23:00:21.785Z,91.11
2022-12-15T23:02:48.801Z,90.04
2022-12-15T23:05:17.871Z,90.33
2022-12-15T23:07:46.066Z,90.56
2022-12-15T23:10:34.493Z,91.21
2022-12-15T23:13:01.377Z,90.00
2022-12-15T23:15:47.638Z,90.00
2022-12-15T23:18:14.725Z,89.72
2022-12-15T23:20:41.782Z,90.08
2022-12-15T23:23:10.131Z,90.41
2022-12-15T23:25:37.108Z,90.08
2022-12-15T23:28:04.535Z,90.73
2022-12-15T23:30:31.309Z,90.32
2022-12-15T23:32:58.184Z,89.60
2022-12-15T23:35:25.014Z,89.72
2022-12-15T23:37:52.247Z,89.39
2022-12-15T23:40:22.571Z,89.69
2022-12-15T23:42:50.420Z,89.28
2022-12-15T23:45:18.373Z,89.12
2022-12-15T23:47:45.312Z,90.12
2022-12-15T23:50:12.220Z,89.69
2022-12-15T23:52:39.140Z,88.99
2022-12-15T23:55:10.336Z,88.98
2022-12-15T23:57:38.500Z,89.91
